Spirit Of Baltimore — WDE9403 — position and weather

sailwx.info

Track history (hours):
 
Tides and Currents Weather Stations Pressure Air Temp Water Temp Dewpoint Dewpoint Depression Visibility Wind Speed Wind Dir Waves Ship Positions

Spirit Of Baltimore

Owner: Spirit Cruises, LLC, Baltimore, MD. More information available from US FCC via Universal Licensing System and Coast Guard Vessel Documentation Center.

Last reported at 2017-Nov-19 07:26 UTC. Time now 2017-Nov-19 10:10 UTC.
Position N 39°17' W 076°37'.

Length 40 m.

Type: Passenger vessel. MMSI: 367416810.

Date/timePositionNaut miles runAvg speedWind from/ knotsBaromVisibWave heightAir tempDewpointWater temp
2017-Nov-19 07:26N 39°17' W 076°37'0 0.0
2017-Nov-19 06:59N 39°17' W 076°37'0 0.8
2017-Nov-19 06:30N 39°17' W 076°36'2 3.2
2017-Nov-19 06:00N 39°16' W 076°35'1 1.7
2017-Nov-19 05:30N 39°17' W 076°35'1 2.3
2017-Nov-19 05:00N 39°17' W 076°37'0 0.0
2017-Nov-19 04:30N 39°17' W 076°37'0 0.0
2017-Nov-19 04:00N 39°17' W 076°37'0 0.0
2017-Nov-19 03:30N 39°17' W 076°37'0 0.0
2017-Nov-19 03:00N 39°17' W 076°37'1 2.5
2017-Nov-19 02:30N 39°17' W 076°35'1 2.0
2017-Nov-19 02:00N 39°16' W 076°36'3 5.1
2017-Nov-19 01:31N 39°15' W 076°32'2 3.1
2017-Nov-19 01:00N 39°13' W 076°32'3 6.3
2017-Nov-19 00:30N 39°16' W 076°34'2 4.5
2017-Nov-19 00:00N 39°17' W 076°37'0 0.0
2017-Nov-18 23:25N 39°17' W 076°37'0 0.0
2017-Nov-18 22:58N 39°17' W 076°37'0 0.0
2017-Nov-18 22:28N 39°17' W 076°37'0 0.0
2017-Nov-18 21:58N 39°17' W 076°37'0 0.0
2017-Nov-18 21:28N 39°17' W 076°37'0 0.0
2017-Nov-18 20:58N 39°17' W 076°37'0 0.0
2017-Nov-18 20:28N 39°17' W 076°37'0 0.0
2017-Nov-18 19:55N 39°17' W 076°37'0 0.0
2017-Nov-18 19:28N 39°17' W 076°37'0 0.0
2017-Nov-18 18:58N 39°17' W 076°37'0 0.0
2017-Nov-18 18:28N 39°17' W 076°37'0 0.0
2017-Nov-18 17:58N 39°17' W 076°37'0 0.0
2017-Nov-18 17:28N 39°17' W 076°37'0 0.0
2017-Nov-18 16:58N 39°17' W 076°37'0 0.0
2017-Nov-18 16:28N 39°17' W 076°37'0 0.0
2017-Nov-18 15:58N 39°17' W 076°37'0 0.0
2017-Nov-18 15:28N 39°17' W 076°37'0 0.0
2017-Nov-18 14:58N 39°17' W 076°37'0 0.0
2017-Nov-18 14:28N 39°17' W 076°37'0 0.0
2017-Nov-18 13:58N 39°17' W 076°37'0 0.0
2017-Nov-18 13:28N 39°17' W 076°37'0 0.0
2017-Nov-18 12:58N 39°17' W 076°37'0 0.0
2017-Nov-18 12:28N 39°17' W 076°37'0 0.0
2017-Nov-18 11:58N 39°17' W 076°37'0 0.0
2017-Nov-18 11:28N 39°17' W 076°37'0 0.0
2017-Nov-18 10:58N 39°17' W 076°37'0 0.0
2017-Nov-18 10:28N 39°17' W 076°37'0 0.0
2017-Nov-18 09:58N 39°17' W 076°37'0 0.0
2017-Nov-18 09:22N 39°17' W 076°37'0 0.0
2017-Nov-18 08:58N 39°17' W 076°37'0 0.0
2017-Nov-18 08:28N 39°17' W 076°37'0 0.0
2017-Nov-18 07:58N 39°17' W 076°37'0 0.0
2017-Nov-18 07:28N 39°17' W 076°37'0 0.0
2017-Nov-18 06:58N 39°17' W 076°37'0 0.0
2017-Nov-18 06:28N 39°17' W 076°37'0 0.0
2017-Nov-18 05:58N 39°17' W 076°37'0 0.0
2017-Nov-18 05:28N 39°17' W 076°37'0 0.0
2017-Nov-18 04:58N 39°17' W 076°37'0 0.0
2017-Nov-18 04:28N 39°17' W 076°37'0 0.0
2017-Nov-18 03:55N 39°17' W 076°37'0 0.0
2017-Nov-18 03:28N 39°17' W 076°37'0 0.0
2017-Nov-18 03:00N 39°17' W 076°37'1 2.6
2017-Nov-18 02:30N 39°17' W 076°35'1 2.3
2017-Nov-18 02:00N 39°15' W 076°35'3 5.7
2017-Nov-18 01:30N 39°14' W 076°32'0 0.2
2017-Nov-18 01:00N 39°14' W 076°32'3 6.0
2017-Nov-18 00:30N 39°16' W 076°35'2 3.4
2017-Nov-18 00:00N 39°17' W 076°37'0 0.0
2017-Nov-17 23:30N 39°17' W 076°37'0 0.0
2017-Nov-17 23:00N 39°17' W 076°37'0 0.0
2017-Nov-17 22:30N 39°17' W 076°37'0 0.0
2017-Nov-17 22:00N 39°17' W 076°37'0 0.0
2017-Nov-17 21:30N 39°17' W 076°37'0 0.0
2017-Nov-17 21:00N 39°17' W 076°37'0 0.0
2017-Nov-17 20:30N 39°17' W 076°37'0 0.0
2017-Nov-17 20:00N 39°17' W 076°37'0 0.0
2017-Nov-17 19:30N 39°17' W 076°37'0 0.0
2017-Nov-17 19:00N 39°17' W 076°37'0 0.0
2017-Nov-17 18:30N 39°17' W 076°37'0 0.0
2017-Nov-17 18:00N 39°17' W 076°37'0 0.0
2017-Nov-17 17:30N 39°17' W 076°37'0 0.0
2017-Nov-17 17:00N 39°17' W 076°37'0 0.0
2017-Nov-17 16:30N 39°17' W 076°37'0 0.0
2017-Nov-17 16:00N 39°17' W 076°37'0 0.0
2017-Nov-17 15:30N 39°17' W 076°37'0 0.5
2017-Nov-17 15:00N 39°17' W 076°37'0 0.5
2017-Nov-17 14:30N 39°17' W 076°37'0 0.0
2017-Nov-17 14:00N 39°17' W 076°37'0 0.0
2017-Nov-17 13:30N 39°17' W 076°37'0 0.0
2017-Nov-17 13:00N 39°17' W 076°37'0 0.0
2017-Nov-17 12:30N 39°17' W 076°37'0 0.0
2017-Nov-17 12:00N 39°17' W 076°37'0 0.0
2017-Nov-17 11:30N 39°17' W 076°37'0 0.0
2017-Nov-17 11:00N 39°17' W 076°37'0 0.0
2017-Nov-17 10:30N 39°17' W 076°37'0 0.0
2017-Nov-17 10:00N 39°17' W 076°37'0 0.0
2017-Nov-17 09:30N 39°17' W 076°37'0 0.0
2017-Nov-17 09:00N 39°17' W 076°37'0 0.0
2017-Nov-17 08:31N 39°17' W 076°37'0 0.0
2017-Nov-17 08:00N 39°17' W 076°37'0 0.0
2017-Nov-17 07:30N 39°17' W 076°37'0 0.0
2017-Nov-17 07:00N 39°17' W 076°37'0 0.0
2017-Nov-17 06:30N 39°17' W 076°37'0 0.0
2017-Nov-17 06:00N 39°17' W 076°37'0 0.0
2017-Nov-17 05:30N 39°17' W 076°37'0 0.0
2017-Nov-17 05:00N 39°17' W 076°37'0 0.0
2017-Nov-17 04:30N 39°17' W 076°37'0 0.0
2017-Nov-17 04:00N 39°17' W 076°37'0 0.0
2017-Nov-17 03:30N 39°17' W 076°37'0 0.0
2017-Nov-17 03:00N 39°17' W 076°37'0 0.0
2017-Nov-17 02:30N 39°17' W 076°37'1 1.3
2017-Nov-17 02:01N 39°17' W 076°36'3 6.1
2017-Nov-17 01:30N 39°15' W 076°33'2 3.2
2017-Nov-17 01:01N 39°13' W 076°32'4 7.1
2017-Nov-17 00:30N 39°16' W 076°35'2 3.6
2017-Nov-17 00:00N 39°17' W 076°37'0 0.0
2017-Nov-16 23:29N 39°17' W 076°37'0 0.0
2017-Nov-16 22:59N 39°17' W 076°37'0 0.0
2017-Nov-16 22:29N 39°17' W 076°37'0 0.0
2017-Nov-16 21:59N 39°17' W 076°37'0 0.0
2017-Nov-16 21:29N 39°17' W 076°37'0 0.0
2017-Nov-16 20:59N 39°17' W 076°37'0 0.0
2017-Nov-16 20:30N 39°17' W 076°37'0 0.0
2017-Nov-16 20:00N 39°17' W 076°37'0 0.0
2017-Nov-16 19:30N 39°17' W 076°37'0 0.0
2017-Nov-16 19:00N 39°17' W 076°37'0 0.0
2017-Nov-16 18:30N 39°17' W 076°37'0 0.0
2017-Nov-16 18:00N 39°17' W 076°37'0 0.7
2017-Nov-16 17:30N 39°17' W 076°36'3 6.3
2017-Nov-16 17:00N 39°15' W 076°33'2 4.9
2017-Nov-16 16:30N 39°13' W 076°31'4 7.1
2017-Nov-16 16:01N 39°16' W 076°34'2 4.3
2017-Nov-16 15:28N 39°17' W 076°37'0 0.0
2017-Nov-16 14:58N 39°17' W 076°37'0 0.0
2017-Nov-16 14:28N 39°17' W 076°37'0 0.0
2017-Nov-16 13:58N 39°17' W 076°37'0 0.0
2017-Nov-16 13:25N 39°17' W 076°37'0 0.0
2017-Nov-16 12:58N 39°17' W 076°37'0 0.0
2017-Nov-16 12:28N 39°17' W 076°37'  
2017-Nov-12 04:05N 39°17' W 076°37'0 0.0
2017-Nov-12 03:59N 39°17' W 076°37'0 0.0
2017-Nov-12 03:31N 39°17' W 076°37'0 0.0
2017-Nov-12 03:00N 39°17' W 076°37'1 2.4
2017-Nov-12 02:30N 39°17' W 076°35'1 2.4
2017-Nov-12 02:01N 39°16' W 076°36'3 5.5
2017-Nov-12 01:31N 39°15' W 076°32'1 1.5
2017-Nov-12 01:01N 39°14' W 076°33'2 4.8
2017-Nov-12 00:31N 39°16' W 076°34'2 3.8
2017-Nov-11 23:58N 39°17' W 076°37'0 0.0
2017-Nov-11 23:28N 39°17' W 076°37'0 0.0
2017-Nov-11 22:58N 39°17' W 076°37'0 0.0
2017-Nov-11 22:28N 39°17' W 076°37'0 0.0
2017-Nov-11 21:58N 39°17' W 076°37'0 0.0
2017-Nov-11 21:28N 39°17' W 076°37'0 0.0
2017-Nov-11 20:52N 39°17' W 076°37'0 0.0
2017-Nov-11 20:28N 39°17' W 076°37'0 0.0
2017-Nov-11 19:58N 39°17' W 076°37'0 0.0
2017-Nov-11 19:25N 39°17' W 076°37'1 1.5
2017-Nov-11 19:00N 39°17' W 076°36'3 6.4
2017-Nov-11 18:30N 39°15' W 076°33'2 3.2
2017-Nov-11 18:00N 39°13' W 076°32'4 7.2
2017-Nov-11 17:30N 39°16' W 076°35'2 3.4
2017-Nov-11 17:00N 39°17' W 076°37'0 0.0
2017-Nov-11 16:30N 39°17' W 076°37'0 0.0
2017-Nov-11 16:00N 39°17' W 076°37'0 0.0
2017-Nov-11 15:30N 39°17' W 076°37'0 0.0
2017-Nov-11 15:00N 39°17' W 076°37'0 0.0
2017-Nov-11 14:30N 39°17' W 076°37'0 0.0
2017-Nov-11 14:00N 39°17' W 076°37'0 0.0
2017-Nov-11 13:30N 39°17' W 076°37'0 0.0
2017-Nov-11 13:00N 39°17' W 076°37'0 0.0
2017-Nov-11 12:30N 39°17' W 076°37'0 0.0
2017-Nov-11 12:00N 39°17' W 076°37'0 0.0
2017-Nov-11 11:30N 39°17' W 076°37'0 0.0
2017-Nov-11 11:00N 39°17' W 076°37'0 0.0
2017-Nov-11 10:30N 39°17' W 076°37'0 0.0
2017-Nov-11 10:00N 39°17' W 076°37'0 0.0
2017-Nov-11 09:30N 39°17' W 076°37'0 0.0
2017-Nov-11 09:00N 39°17' W 076°37'0 0.0
2017-Nov-11 08:31N 39°17' W 076°37'0 0.0
2017-Nov-11 08:00N 39°17' W 076°37'0 0.0
2017-Nov-11 07:30N 39°17' W 076°37'0 0.0
2017-Nov-11 07:00N 39°17' W 076°37'0 0.0
2017-Nov-11 06:30N 39°17' W 076°37'0 0.0
2017-Nov-11 06:00N 39°17' W 076°37'0 0.0
2017-Nov-11 05:30N 39°17' W 076°37'0 0.0
2017-Nov-11 05:00N 39°17' W 076°37'0 0.0
2017-Nov-11 04:30N 39°17' W 076°37'0 0.0
2017-Nov-11 04:01N 39°17' W 076°37'0 0.0
2017-Nov-11 03:30N 39°17' W 076°37'0 0.0
2017-Nov-11 03:00N 39°17' W 076°37'0 0.0
2017-Nov-11 02:30N 39°17' W 076°37'0 0.0
2017-Nov-11 02:00N 39°17' W 076°37'0 0.0
2017-Nov-11 01:30N 39°17' W 076°37'0 0.0
2017-Nov-11 01:00N 39°17' W 076°37'0 0.0
2017-Nov-11 00:30N 39°17' W 076°37'0 0.0
2017-Nov-11 00:00N 39°17' W 076°37'0 0.0
2017-Nov-10 23:30N 39°17' W 076°37'0 0.0
2017-Nov-10 23:00N 39°17' W 076°37'0 0.0
2017-Nov-10 22:30N 39°17' W 076°37'0 0.0
2017-Nov-10 22:00N 39°17' W 076°37'0 0.0
2017-Nov-10 21:30N 39°17' W 076°37'0 0.0
2017-Nov-10 21:00N 39°17' W 076°37'0 0.0
2017-Nov-10 20:30N 39°17' W 076°37'0 0.0
2017-Nov-10 20:00N 39°17' W 076°37'0 0.0
2017-Nov-10 19:30N 39°17' W 076°37'0 0.1
2017-Nov-10 19:00N 39°17' W 076°37'2 4.7
2017-Nov-10 18:31N 39°16' W 076°34'3 6.4
2017-Nov-10 18:00N 39°13' W 076°32'3 6.1
2017-Nov-10 17:30N 39°15' W 076°34'2 4.6
2017-Nov-10 16:58N 39°17' W 076°37'0 0.0
2017-Nov-10 16:28N 39°17' W 076°37'0 0.0
2017-Nov-10 15:58N 39°17' W 076°37'0 0.0
2017-Nov-10 15:28N 39°17' W 076°37'0 0.0
2017-Nov-10 14:58N 39°17' W 076°37'  
Track history (hours):
 
Tides and Currents Weather Stations Pressure Air Temp Water Temp Dewpoint Dewpoint Depression Visibility Wind Speed Wind Dir Waves Ship Positions

Spirit Of Baltimore

Owner: Spirit Cruises, LLC, Baltimore, MD. More information available from US FCC via Universal Licensing System and Coast Guard Vessel Documentation Center.

Last reported at 2017-Nov-19 07:26 UTC. Time now 2017-Nov-19 10:10 UTC.
Position N 39°17' W 076°37'.

Length 40 m.

Type: Passenger vessel. MMSI: 367416810.

Date/timePositionNaut miles runAvg speedWind from/ knotsBaromVisibWave heightAir tempDewpointWater temp
2017-Nov-19 07:26N 39°17' W 076°37'0 0.0
2017-Nov-19 06:59N 39°17' W 076°37'0 0.8
2017-Nov-19 06:30N 39°17' W 076°36'2 3.2
2017-Nov-19 06:00N 39°16' W 076°35'1 1.7
2017-Nov-19 05:30N 39°17' W 076°35'1 2.3
2017-Nov-19 05:00N 39°17' W 076°37'0 0.0
2017-Nov-19 04:30N 39°17' W 076°37'0 0.0
2017-Nov-19 04:00N 39°17' W 076°37'0 0.0
2017-Nov-19 03:30N 39°17' W 076°37'0 0.0
2017-Nov-19 03:00N 39°17' W 076°37'1 2.5
2017-Nov-19 02:30N 39°17' W 076°35'1 2.0
2017-Nov-19 02:00N 39°16' W 076°36'3 5.1
2017-Nov-19 01:31N 39°15' W 076°32'2 3.1
2017-Nov-19 01:00N 39°13' W 076°32'3 6.3
2017-Nov-19 00:30N 39°16' W 076°34'2 4.5
2017-Nov-19 00:00N 39°17' W 076°37'0 0.0
2017-Nov-18 23:25N 39°17' W 076°37'0 0.0
2017-Nov-18 22:58N 39°17' W 076°37'0 0.0
2017-Nov-18 22:28N 39°17' W 076°37'0 0.0
2017-Nov-18 21:58N 39°17' W 076°37'0 0.0
2017-Nov-18 21:28N 39°17' W 076°37'0 0.0
2017-Nov-18 20:58N 39°17' W 076°37'0 0.0
2017-Nov-18 20:28N 39°17' W 076°37'0 0.0
2017-Nov-18 19:55N 39°17' W 076°37'0 0.0
2017-Nov-18 19:28N 39°17' W 076°37'0 0.0
2017-Nov-18 18:58N 39°17' W 076°37'0 0.0
2017-Nov-18 18:28N 39°17' W 076°37'0 0.0
2017-Nov-18 17:58N 39°17' W 076°37'0 0.0
2017-Nov-18 17:28N 39°17' W 076°37'0 0.0
2017-Nov-18 16:58N 39°17' W 076°37'0 0.0
2017-Nov-18 16:28N 39°17' W 076°37'0 0.0
2017-Nov-18 15:58N 39°17' W 076°37'0 0.0
2017-Nov-18 15:28N 39°17' W 076°37'0 0.0
2017-Nov-18 14:58N 39°17' W 076°37'0 0.0
2017-Nov-18 14:28N 39°17' W 076°37'0 0.0
2017-Nov-18 13:58N 39°17' W 076°37'0 0.0
2017-Nov-18 13:28N 39°17' W 076°37'0 0.0
2017-Nov-18 12:58N 39°17' W 076°37'0 0.0
2017-Nov-18 12:28N 39°17' W 076°37'0 0.0
2017-Nov-18 11:58N 39°17' W 076°37'0 0.0
2017-Nov-18 11:28N 39°17' W 076°37'0 0.0
2017-Nov-18 10:58N 39°17' W 076°37'0 0.0
2017-Nov-18 10:28N 39°17' W 076°37'0 0.0
2017-Nov-18 09:58N 39°17' W 076°37'0 0.0
2017-Nov-18 09:22N 39°17' W 076°37'0 0.0
2017-Nov-18 08:58N 39°17' W 076°37'0 0.0
2017-Nov-18 08:28N 39°17' W 076°37'0 0.0
2017-Nov-18 07:58N 39°17' W 076°37'0 0.0
2017-Nov-18 07:28N 39°17' W 076°37'0 0.0
2017-Nov-18 06:58N 39°17' W 076°37'0 0.0
2017-Nov-18 06:28N 39°17' W 076°37'0 0.0
2017-Nov-18 05:58N 39°17' W 076°37'0 0.0
2017-Nov-18 05:28N 39°17' W 076°37'0 0.0
2017-Nov-18 04:58N 39°17' W 076°37'0 0.0
2017-Nov-18 04:28N 39°17' W 076°37'0 0.0
2017-Nov-18 03:55N 39°17' W 076°37'0 0.0
2017-Nov-18 03:28N 39°17' W 076°37'0 0.0
2017-Nov-18 03:00N 39°17' W 076°37'1 2.6
2017-Nov-18 02:30N 39°17' W 076°35'1 2.3
2017-Nov-18 02:00N 39°15' W 076°35'3 5.7
2017-Nov-18 01:30N 39°14' W 076°32'0 0.2
2017-Nov-18 01:00N 39°14' W 076°32'3 6.0
2017-Nov-18 00:30N 39°16' W 076°35'2 3.4
2017-Nov-18 00:00N 39°17' W 076°37'0 0.0
2017-Nov-17 23:30N 39°17' W 076°37'0 0.0
2017-Nov-17 23:00N 39°17' W 076°37'0 0.0
2017-Nov-17 22:30N 39°17' W 076°37'0 0.0
2017-Nov-17 22:00N 39°17' W 076°37'0 0.0
2017-Nov-17 21:30N 39°17' W 076°37'0 0.0
2017-Nov-17 21:00N 39°17' W 076°37'0 0.0
2017-Nov-17 20:30N 39°17' W 076°37'0 0.0
2017-Nov-17 20:00N 39°17' W 076°37'0 0.0
2017-Nov-17 19:30N 39°17' W 076°37'0 0.0
2017-Nov-17 19:00N 39°17' W 076°37'0 0.0
2017-Nov-17 18:30N 39°17' W 076°37'0 0.0
2017-Nov-17 18:00N 39°17' W 076°37'0 0.0
2017-Nov-17 17:30N 39°17' W 076°37'0 0.0
2017-Nov-17 17:00N 39°17' W 076°37'0 0.0
2017-Nov-17 16:30N 39°17' W 076°37'0 0.0
2017-Nov-17 16:00N 39°17' W 076°37'0 0.0
2017-Nov-17 15:30N 39°17' W 076°37'0 0.5
2017-Nov-17 15:00N 39°17' W 076°37'0 0.5
2017-Nov-17 14:30N 39°17' W 076°37'0 0.0
2017-Nov-17 14:00N 39°17' W 076°37'0 0.0
2017-Nov-17 13:30N 39°17' W 076°37'0 0.0
2017-Nov-17 13:00N 39°17' W 076°37'0 0.0
2017-Nov-17 12:30N 39°17' W 076°37'0 0.0
2017-Nov-17 12:00N 39°17' W 076°37'0 0.0
2017-Nov-17 11:30N 39°17' W 076°37'0 0.0
2017-Nov-17 11:00N 39°17' W 076°37'0 0.0
2017-Nov-17 10:30N 39°17' W 076°37'0 0.0
2017-Nov-17 10:00N 39°17' W 076°37'0 0.0
2017-Nov-17 09:30N 39°17' W 076°37'0 0.0
2017-Nov-17 09:00N 39°17' W 076°37'0 0.0
2017-Nov-17 08:31N 39°17' W 076°37'0 0.0
2017-Nov-17 08:00N 39°17' W 076°37'0 0.0
2017-Nov-17 07:30N 39°17' W 076°37'0 0.0
2017-Nov-17 07:00N 39°17' W 076°37'0 0.0
2017-Nov-17 06:30N 39°17' W 076°37'0 0.0
2017-Nov-17 06:00N 39°17' W 076°37'0 0.0
2017-Nov-17 05:30N 39°17' W 076°37'0 0.0
2017-Nov-17 05:00N 39°17' W 076°37'0 0.0
2017-Nov-17 04:30N 39°17' W 076°37'0 0.0
2017-Nov-17 04:00N 39°17' W 076°37'0 0.0
2017-Nov-17 03:30N 39°17' W 076°37'0 0.0
2017-Nov-17 03:00N 39°17' W 076°37'0 0.0
2017-Nov-17 02:30N 39°17' W 076°37'1 1.3
2017-Nov-17 02:01N 39°17' W 076°36'3 6.1
2017-Nov-17 01:30N 39°15' W 076°33'2 3.2
2017-Nov-17 01:01N 39°13' W 076°32'4 7.1
2017-Nov-17 00:30N 39°16' W 076°35'2 3.6
2017-Nov-17 00:00N 39°17' W 076°37'0 0.0
2017-Nov-16 23:29N 39°17' W 076°37'0 0.0
2017-Nov-16 22:59N 39°17' W 076°37'0 0.0
2017-Nov-16 22:29N 39°17' W 076°37'0 0.0
2017-Nov-16 21:59N 39°17' W 076°37'0 0.0
2017-Nov-16 21:29N 39°17' W 076°37'0 0.0
2017-Nov-16 20:59N 39°17' W 076°37'0 0.0
2017-Nov-16 20:30N 39°17' W 076°37'0 0.0
2017-Nov-16 20:00N 39°17' W 076°37'0 0.0
2017-Nov-16 19:30N 39°17' W 076°37'0 0.0
2017-Nov-16 19:00N 39°17' W 076°37'0 0.0
2017-Nov-16 18:30N 39°17' W 076°37'0 0.0
2017-Nov-16 18:00N 39°17' W 076°37'0 0.7
2017-Nov-16 17:30N 39°17' W 076°36'3 6.3
2017-Nov-16 17:00N 39°15' W 076°33'2 4.9
2017-Nov-16 16:30N 39°13' W 076°31'4 7.1
2017-Nov-16 16:01N 39°16' W 076°34'2 4.3
2017-Nov-16 15:28N 39°17' W 076°37'0 0.0
2017-Nov-16 14:58N 39°17' W 076°37'0 0.0
2017-Nov-16 14:28N 39°17' W 076°37'0 0.0
2017-Nov-16 13:58N 39°17' W 076°37'0 0.0
2017-Nov-16 13:25N 39°17' W 076°37'0 0.0
2017-Nov-16 12:58N 39°17' W 076°37'0 0.0
2017-Nov-16 12:28N 39°17' W 076°37'  
2017-Nov-12 04:05N 39°17' W 076°37'0 0.0
2017-Nov-12 03:59N 39°17' W 076°37'0 0.0
2017-Nov-12 03:31N 39°17' W 076°37'0 0.0
2017-Nov-12 03:00N 39°17' W 076°37'1 2.4
2017-Nov-12 02:30N 39°17' W 076°35'1 2.4
2017-Nov-12 02:01N 39°16' W 076°36'3 5.5
2017-Nov-12 01:31N 39°15' W 076°32'1 1.5
2017-Nov-12 01:01N 39°14' W 076°33'2 4.8
2017-Nov-12 00:31N 39°16' W 076°34'2 3.8
2017-Nov-11 23:58N 39°17' W 076°37'0 0.0
2017-Nov-11 23:28N 39°17' W 076°37'0 0.0
2017-Nov-11 22:58N 39°17' W 076°37'0 0.0
2017-Nov-11 22:28N 39°17' W 076°37'0 0.0
2017-Nov-11 21:58N 39°17' W 076°37'0 0.0
2017-Nov-11 21:28N 39°17' W 076°37'0 0.0
2017-Nov-11 20:52N 39°17' W 076°37'0 0.0
2017-Nov-11 20:28N 39°17' W 076°37'0 0.0
2017-Nov-11 19:58N 39°17' W 076°37'0 0.0
2017-Nov-11 19:25N 39°17' W 076°37'1 1.5
2017-Nov-11 19:00N 39°17' W 076°36'3 6.4
2017-Nov-11 18:30N 39°15' W 076°33'2 3.2
2017-Nov-11 18:00N 39°13' W 076°32'4 7.2
2017-Nov-11 17:30N 39°16' W 076°35'2 3.4
2017-Nov-11 17:00N 39°17' W 076°37'0 0.0
2017-Nov-11 16:30N 39°17' W 076°37'0 0.0
2017-Nov-11 16:00N 39°17' W 076°37'0 0.0
2017-Nov-11 15:30N 39°17' W 076°37'0 0.0
2017-Nov-11 15:00N 39°17' W 076°37'0 0.0
2017-Nov-11 14:30N 39°17' W 076°37'0 0.0
2017-Nov-11 14:00N 39°17' W 076°37'0 0.0
2017-Nov-11 13:30N 39°17' W 076°37'0 0.0
2017-Nov-11 13:00N 39°17' W 076°37'0 0.0
2017-Nov-11 12:30N 39°17' W 076°37'0 0.0
2017-Nov-11 12:00N 39°17' W 076°37'0 0.0
2017-Nov-11 11:30N 39°17' W 076°37'0 0.0
2017-Nov-11 11:00N 39°17' W 076°37'0 0.0
2017-Nov-11 10:30N 39°17' W 076°37'0 0.0
2017-Nov-11 10:00N 39°17' W 076°37'0 0.0
2017-Nov-11 09:30N 39°17' W 076°37'0 0.0
2017-Nov-11 09:00N 39°17' W 076°37'0 0.0
2017-Nov-11 08:31N 39°17' W 076°37'0 0.0
2017-Nov-11 08:00N 39°17' W 076°37'0 0.0
2017-Nov-11 07:30N 39°17' W 076°37'0 0.0
2017-Nov-11 07:00N 39°17' W 076°37'0 0.0
2017-Nov-11 06:30N 39°17' W 076°37'0 0.0
2017-Nov-11 06:00N 39°17' W 076°37'0 0.0
2017-Nov-11 05:30N 39°17' W 076°37'0 0.0
2017-Nov-11 05:00N 39°17' W 076°37'0 0.0
2017-Nov-11 04:30N 39°17' W 076°37'0 0.0
2017-Nov-11 04:01N 39°17' W 076°37'0 0.0
2017-Nov-11 03:30N 39°17' W 076°37'0 0.0
2017-Nov-11 03:00N 39°17' W 076°37'0 0.0
2017-Nov-11 02:30N 39°17' W 076°37'0 0.0
2017-Nov-11 02:00N 39°17' W 076°37'0 0.0
2017-Nov-11 01:30N 39°17' W 076°37'0 0.0
2017-Nov-11 01:00N 39°17' W 076°37'0 0.0
2017-Nov-11 00:30N 39°17' W 076°37'0 0.0
2017-Nov-11 00:00N 39°17' W 076°37'0 0.0
2017-Nov-10 23:30N 39°17' W 076°37'0 0.0
2017-Nov-10 23:00N 39°17' W 076°37'0 0.0
2017-Nov-10 22:30N 39°17' W 076°37'0 0.0
2017-Nov-10 22:00N 39°17' W 076°37'0 0.0
2017-Nov-10 21:30N 39°17' W 076°37'0 0.0
2017-Nov-10 21:00N 39°17' W 076°37'0 0.0
2017-Nov-10 20:30N 39°17' W 076°37'0 0.0
2017-Nov-10 20:00N 39°17' W 076°37'0 0.0
2017-Nov-10 19:30N 39°17' W 076°37'0 0.1
2017-Nov-10 19:00N 39°17' W 076°37'2 4.7
2017-Nov-10 18:31N 39°16' W 076°34'3 6.4
2017-Nov-10 18:00N 39°13' W 076°32'3 6.1
2017-Nov-10 17:30N 39°15' W 076°34'2 4.6
2017-Nov-10 16:58N 39°17' W 076°37'0 0.0
2017-Nov-10 16:28N 39°17' W 076°37'0 0.0
2017-Nov-10 15:58N 39°17' W 076°37'0 0.0
2017-Nov-10 15:28N 39°17' W 076°37'0 0.0
2017-Nov-10 14:58N 39°17' W 076°37'  

Dump ship's entire track history